Moxee City, Washington
Current Conditions -  °F | °C
As of 1:56 PM on Friday 24 Oct 2014 (Local Time) from K1YT Reporting Station
Clear Clear  
Wind Chill: 52°   Ceiling: Unl
Heat Index: 52°   Visibility: 10mi
Dew Point: 42°   Wind: 1mph
Humidity: 68%   Direction: NA
Pressure: 30.03"   Gusts: NA
Location:  46.5157°N, 120.098°W
Report Text: K1YT 242056Z AUTO VRB01KT 10SM CLR 11/05 A3003 RMK AO2 SLPNO T01100054 58016
Loading
Personal Weather Stations






























Interactive Weather Map
Tropical Storm Tracking
New forecast layout! Learn more

10-Day Weather Forecast

Advertisements
Track Severe Weather on mobile